createdAt,value
2022-11-20T00:03:55.620Z,1.03
2022-11-20T00:08:06.602Z,1.20
2022-11-20T00:12:15.566Z,1.40
2022-11-20T00:16:26.194Z,1.33
2022-11-20T00:20:35.100Z,1.33
2022-11-20T00:24:45.501Z,1.17
2022-11-20T00:28:55.813Z,1.33
2022-11-20T00:33:04.697Z,1.20
2022-11-20T00:37:13.657Z,1.30
2022-11-20T00:41:25.768Z,1.40
2022-11-20T00:45:34.802Z,1.87
2022-11-20T00:49:43.736Z,1.53
2022-11-20T00:53:52.721Z,1.40
2022-11-20T00:58:04.668Z,1.47
2022-11-20T01:02:13.863Z,1.70
2022-11-20T01:06:24.442Z,1.37
2022-11-20T01:10:33.394Z,1.40
2022-11-20T01:14:43.810Z,1.17
2022-11-20T01:18:54.611Z,1.53
2022-11-20T01:23:03.570Z,1.67
2022-11-20T01:27:12.631Z,1.00
2022-11-20T01:31:24.918Z,1.93
2022-11-20T01:35:33.835Z,1.50
2022-11-20T01:39:42.689Z,1.20
2022-11-20T01:43:51.880Z,1.10
2022-11-20T01:48:02.295Z,1.63
2022-11-20T01:52:18.740Z,1.40
2022-11-20T01:56:29.685Z,1.30
2022-11-20T02:00:38.834Z,1.57
2022-11-20T02:04:50.187Z,1.43
2022-11-20T02:08:59.408Z,1.67
2022-11-20T02:13:25.942Z,1.50
2022-11-20T02:17:34.976Z,0.90
2022-11-20T02:21:50.713Z,1.33
2022-11-20T02:26:03.543Z,1.50
2022-11-20T02:30:14.114Z,1.53
2022-11-20T02:34:23.010Z,1.93
2022-11-20T02:38:32.165Z,1.63
2022-11-20T02:42:42.978Z,1.03
2022-11-20T02:46:51.894Z,0.97
2022-11-20T02:51:00.808Z,1.20
2022-11-20T02:55:10.402Z,1.00
2022-11-20T02:59:21.075Z,1.00
2022-11-20T03:03:30.127Z,1.47
2022-11-20T03:07:39.164Z,2.47
2022-11-20T03:11:48.181Z,2.37
2022-11-20T03:15:58.513Z,1.83
2022-11-20T03:20:08.946Z,1.50
2022-11-20T03:24:18.615Z,1.33
2022-11-20T03:28:27.534Z,2.17
2022-11-20T03:32:38.107Z,2.20
2022-11-20T03:36:47.467Z,2.27
2022-11-20T03:41:01.517Z,2.23
2022-11-20T03:45:11.292Z,2.17
2022-11-20T03:49:22.065Z,2.63
2022-11-20T03:53:31.057Z,2.33
2022-11-20T03:57:39.993Z,3.43
2022-11-20T04:01:49.705Z,3.20
2022-11-20T04:06:04.783Z,3.07
2022-11-20T04:10:13.890Z,3.30
2022-11-20T04:14:23.002Z,3.30
2022-11-20T04:18:32.201Z,2.63
2022-11-20T04:22:42.765Z,3.10
2022-11-20T04:26:51.680Z,3.00
2022-11-20T04:31:08.343Z,2.63
2022-11-20T04:35:17.786Z,2.97
2022-11-20T04:39:28.743Z,2.30
2022-11-20T04:43:37.873Z,3.20
2022-11-20T04:47:47.101Z,3.40
2022-11-20T04:51:56.545Z,4.33
2022-11-20T04:56:09.359Z,3.03
2022-11-20T05:00:19.062Z,3.50
2022-11-20T05:04:28.005Z,3.30
2022-11-20T05:08:36.930Z,3.40
2022-11-20T05:12:47.320Z,3.63
2022-11-20T05:16:56.381Z,3.03
2022-11-20T05:21:06.031Z,3.63
2022-11-20T05:25:15.144Z,3.33
2022-11-20T05:29:25.605Z,2.50
2022-11-20T05:33:35.081Z,3.20
2022-11-20T05:37:43.900Z,2.80
2022-11-20T05:42:13.132Z,2.77
2022-11-20T05:46:28.226Z,2.80
2022-11-20T05:50:38.048Z,2.50
2022-11-20T05:54:47.083Z,2.93
2022-11-20T05:58:56.049Z,2.83
2022-11-20T06:03:06.500Z,2.80
2022-11-20T06:07:15.456Z,2.80
2022-11-20T06:11:24.579Z,2.13
2022-11-20T06:15:33.418Z,3.30
2022-11-20T06:19:44.198Z,2.37
2022-11-20T06:23:55.020Z,2.33
2022-11-20T06:28:06.012Z,3.00
2022-11-20T06:32:14.958Z,2.57
2022-11-20T06:36:25.822Z,2.23
2022-11-20T06:40:34.709Z,2.87
2022-11-20T06:44:43.736Z,3.27
2022-11-20T06:48:53.057Z,2.83
2022-11-20T06:53:06.291Z,2.53
2022-11-20T06:57:15.533Z,2.57
2022-11-20T07:01:24.577Z,2.27
2022-11-20T07:05:33.715Z,1.90
2022-11-20T07:09:44.072Z,2.60
2022-11-20T07:13:53.196Z,2.13
2022-11-20T07:18:02.384Z,3.07
2022-11-20T07:22:11.647Z,3.17
2022-11-20T07:26:22.013Z,3.03
2022-11-20T07:30:31.312Z,2.50
2022-11-20T07:34:40.318Z,3.00
2022-11-20T07:38:49.348Z,3.53
2022-11-20T07:42:59.691Z,3.93
2022-11-20T07:47:08.702Z,2.97
2022-11-20T07:51:17.755Z,3.80
2022-11-20T07:55:26.545Z,3.47
2022-11-20T07:59:37.081Z,4.13
2022-11-20T08:03:46.212Z,2.97
2022-11-20T08:07:55.080Z,2.97
2022-11-20T08:12:21.061Z,3.67
2022-11-20T08:16:31.660Z,3.40
2022-11-20T08:20:41.254Z,4.53
2022-11-20T08:24:50.371Z,4.13
2022-11-20T08:28:59.590Z,3.93
2022-11-20T08:33:11.957Z,4.77
2022-11-20T08:37:20.833Z,4.77
2022-11-20T08:41:29.780Z,5.53
2022-11-20T08:45:38.752Z,5.20
2022-11-20T08:49:49.047Z,5.13
2022-11-20T08:53:58.011Z,4.40
2022-11-20T08:58:07.516Z,5.03
2022-11-20T09:02:16.623Z,5.40
2022-11-20T09:06:26.997Z,4.67
2022-11-20T09:10:35.904Z,5.07
2022-11-20T09:14:44.797Z,5.33
2022-11-20T09:19:07.223Z,4.60
2022-11-20T09:23:23.875Z,5.53
2022-11-20T09:27:32.793Z,5.20
2022-11-20T09:31:41.818Z,5.00
2022-11-20T09:35:50.753Z,5.53
2022-11-20T09:40:01.229Z,6.20
2022-11-20T09:44:22.512Z,4.57
2022-11-20T09:48:50.428Z,5.23
2022-11-20T09:53:14.690Z,4.97
2022-11-20T09:57:32.418Z,5.13
2022-11-20T10:01:44.039Z,5.67
2022-11-20T10:05:56.705Z,4.83
2022-11-20T10:10:06.119Z,6.33
2022-11-20T10:14:28.041Z,5.30
2022-11-20T10:18:51.005Z,4.37
2022-11-20T10:23:25.986Z,4.37
2022-11-20T10:27:52.498Z,4.80
2022-11-20T10:32:07.064Z,4.83
2022-11-20T10:36:21.734Z,3.93
2022-11-20T10:40:37.037Z,4.00
2022-11-20T10:45:06.668Z,3.87
2022-11-20T10:49:21.370Z,4.10
2022-11-20T10:53:56.652Z,3.77
2022-11-20T10:58:13.882Z,4.30
2022-11-20T11:02:27.216Z,4.07
2022-11-20T11:06:40.410Z,3.83
2022-11-20T11:10:54.496Z,3.77
2022-11-20T11:15:03.602Z,4.47
2022-11-20T11:19:16.904Z,4.60
2022-11-20T11:23:34.966Z,4.10
2022-11-20T11:27:50.143Z,4.20
2022-11-20T11:32:07.865Z,3.80
2022-11-20T11:36:22.484Z,3.93
2022-11-20T11:40:35.533Z,4.27
2022-11-20T11:45:06.451Z,4.53
2022-11-20T11:49:20.030Z,4.07
2022-11-20T11:53:30.592Z,6.27
2022-11-20T11:57:50.331Z,4.23
2022-11-20T12:02:05.296Z,3.37
2022-11-20T12:06:17.779Z,3.70
2022-11-20T12:10:43.191Z,3.57
2022-11-20T12:14:57.719Z,3.23
2022-11-20T12:19:12.980Z,3.57
2022-11-20T12:23:32.477Z,4.73
2022-11-20T12:28:06.275Z,4.77
2022-11-20T12:32:57.272Z,4.00
2022-11-20T12:37:16.533Z,4.80
2022-11-20T12:41:57.885Z,3.87
2022-11-20T12:46:17.840Z,4.33
2022-11-20T12:50:47.578Z,4.67
2022-11-20T12:55:33.588Z,6.70
2022-11-20T13:00:03.904Z,5.40
2022-11-20T13:04:42.703Z,7.93
2022-11-20T13:08:57.177Z,7.27
2022-11-20T13:13:16.108Z,5.20
2022-11-20T13:17:32.545Z,4.77
2022-11-20T13:21:44.521Z,6.23
2022-11-20T13:25:55.212Z,5.17
2022-11-20T13:30:18.609Z,5.17
2022-11-20T13:34:40.420Z,4.90
2022-11-20T13:38:51.941Z,4.57
2022-11-20T13:43:13.569Z,3.47
2022-11-20T13:47:27.129Z,4.40
2022-11-20T13:51:45.257Z,4.10
2022-11-20T13:56:02.294Z,4.10
2022-11-20T14:00:15.514Z,4.47
2022-11-20T14:04:32.071Z,5.07
2022-11-20T14:08:44.760Z,3.80
2022-11-20T14:12:53.936Z,5.77
2022-11-20T14:17:09.613Z,4.73
2022-11-20T14:21:27.643Z,5.57
2022-11-20T14:25:37.380Z,4.60
2022-11-20T14:29:49.741Z,3.67
2022-11-20T14:33:59.414Z,3.13
2022-11-20T14:38:18.622Z,5.43
2022-11-20T14:42:29.071Z,3.83
2022-11-20T14:46:39.738Z,4.17
2022-11-20T14:50:48.994Z,4.80
2022-11-20T14:55:01.542Z,4.33
2022-11-20T14:59:12.040Z,4.53
2022-11-20T15:03:21.157Z,4.17
2022-11-20T15:07:31.745Z,3.53
2022-11-20T15:11:42.545Z,4.10
2022-11-20T15:15:53.563Z,3.87
2022-11-20T15:20:06.149Z,3.77
2022-11-20T15:24:15.796Z,4.53
2022-11-20T15:28:31.089Z,4.77
2022-11-20T15:32:40.169Z,4.77
2022-11-20T15:36:49.292Z,5.83
2022-11-20T15:40:58.360Z,6.97
2022-11-20T15:45:09.634Z,5.40
2022-11-20T15:49:51.864Z,4.13
2022-11-20T15:54:16.265Z,5.03
2022-11-20T16:02:59.823Z,4.33
2022-11-20T16:07:43.474Z,4.47
2022-11-20T16:16:34.313Z,4.63
2022-11-20T16:20:45.774Z,5.20
2022-11-20T16:24:55.140Z,4.80
2022-11-20T16:29:33.332Z,5.60
2022-11-20T16:33:42.958Z,5.87
2022-11-20T16:37:56.038Z,6.37
2022-11-20T16:42:08.511Z,5.93
2022-11-20T16:46:18.548Z,5.70
2022-11-20T16:50:28.764Z,5.73
2022-11-20T16:54:39.404Z,5.70
2022-11-20T16:58:50.421Z,4.70
2022-11-20T17:03:01.466Z,5.73
2022-11-20T17:07:11.151Z,6.10
2022-11-20T17:11:22.343Z,4.73
2022-11-20T17:15:31.361Z,5.27
2022-11-20T17:19:40.327Z,6.03
2022-11-20T17:23:49.607Z,6.77
2022-11-20T17:28:00.079Z,5.53
2022-11-20T17:32:08.983Z,5.37
2022-11-20T17:36:19.990Z,5.53
2022-11-20T17:40:29.421Z,6.87
2022-11-20T17:44:42.105Z,4.87
2022-11-20T17:48:52.240Z,6.30
2022-11-20T17:53:01.284Z,5.20
2022-11-20T17:57:28.637Z,6.90
2022-11-20T18:01:40.192Z,5.83
2022-11-20T18:05:49.564Z,5.90
2022-11-20T18:09:58.709Z,5.77
2022-11-20T18:14:26.791Z,5.37
2022-11-20T18:18:37.557Z,5.80
2022-11-20T18:22:46.847Z,5.60
2022-11-20T18:26:56.333Z,4.17
2022-11-20T18:31:08.206Z,4.00
2022-11-20T18:35:18.976Z,4.93
2022-11-20T18:39:28.245Z,4.60
2022-11-20T18:43:56.174Z,4.67
2022-11-20T18:48:05.512Z,4.17
2022-11-20T18:52:16.186Z,4.30
2022-11-20T18:56:25.689Z,3.63
2022-11-20T19:00:35.027Z,4.23
2022-11-20T19:04:44.497Z,4.50
2022-11-20T19:08:55.686Z,4.47
2022-11-20T19:13:05.105Z,4.07
2022-11-20T19:17:14.842Z,3.50
2022-11-20T19:21:25.604Z,4.13
2022-11-20T19:25:38.263Z,3.93
2022-11-20T19:29:47.547Z,4.60
2022-11-20T19:33:59.216Z,3.97
2022-11-20T19:38:08.131Z,3.67
2022-11-20T19:42:18.816Z,4.67
2022-11-20T19:46:28.484Z,4.57
2022-11-20T19:50:37.480Z,3.47
2022-11-20T19:54:47.395Z,3.73
2022-11-20T19:58:59.121Z,4.47
2022-11-20T20:03:08.018Z,4.03
2022-11-20T20:07:17.413Z,3.63
2022-11-20T20:11:28.016Z,5.03
2022-11-20T20:15:42.471Z,5.53
2022-11-20T20:19:51.528Z,4.43
2022-11-20T20:24:01.475Z,3.57
2022-11-20T20:28:10.607Z,4.17
2022-11-20T20:32:21.200Z,3.80
2022-11-20T20:36:30.867Z,4.40
2022-11-20T20:40:39.802Z,4.10
2022-11-20T20:45:05.881Z,3.33
2022-11-20T20:49:16.764Z,4.17
2022-11-20T20:53:27.711Z,4.13
2022-11-20T20:57:36.705Z,3.90
2022-11-20T21:01:45.682Z,3.57
2022-11-20T21:05:59.279Z,4.10
2022-11-20T21:10:08.846Z,3.70
2022-11-20T21:14:17.936Z,4.27
2022-11-20T21:18:27.656Z,3.80
2022-11-20T21:22:41.548Z,3.97
2022-11-20T23:57:26.669Z,4.27
